createdAt,value
2018-06-30T00:00:21.673Z,0
2018-06-30T00:01:02.187Z,0
2018-06-30T00:01:42.652Z,0
2018-06-30T00:02:23.278Z,0
2018-06-30T00:03:04.037Z,0
2018-06-30T00:03:44.315Z,0
2018-06-30T00:04:24.805Z,0
2018-06-30T00:05:06.142Z,0
2018-06-30T00:05:46.420Z,0
2018-06-30T00:06:27.263Z,0
2018-06-30T00:07:07.802Z,0
2018-06-30T00:12:56.492Z,0
2018-06-30T00:13:34.051Z,0
2018-06-30T00:14:14.394Z,0
2018-06-30T00:14:58.541Z,0
2018-06-30T00:15:38.899Z,0
2018-06-30T00:16:21.424Z,0
2018-06-30T00:17:02.034Z,0
2018-06-30T00:17:42.253Z,0
2018-06-30T00:18:22.630Z,0
2018-06-30T00:19:03.121Z,0
2018-06-30T00:19:43.661Z,0
2018-06-30T00:20:24.294Z,0
2018-06-30T00:21:04.744Z,0
2018-06-30T00:21:46.621Z,0
2018-06-30T00:22:26.499Z,0
2018-06-30T00:23:06.892Z,0
2018-06-30T00:23:47.374Z,0
2018-06-30T00:24:28.376Z,0
2018-06-30T00:25:09.563Z,0
2018-06-30T00:25:50.637Z,0
2018-06-30T00:26:31.101Z,0
2018-06-30T00:27:11.522Z,0
2018-06-30T00:27:51.980Z,0
2018-06-30T00:28:32.412Z,0
2018-06-30T00:29:13.067Z,0
2018-06-30T00:29:53.509Z,0
2018-06-30T00:30:33.903Z,0
2018-06-30T00:31:14.336Z,0
2018-06-30T00:31:54.750Z,0
2018-06-30T00:32:35.228Z,0
2018-06-30T00:33:15.672Z,0
2018-06-30T00:33:56.103Z,0
2018-06-30T00:36:30.191Z,0
2018-06-30T00:37:10.594Z,0
2018-06-30T00:37:52.109Z,0
2018-06-30T00:38:31.718Z,0
2018-06-30T00:39:12.402Z,0
2018-06-30T00:39:52.722Z,0
2018-06-30T00:40:33.228Z,0
2018-06-30T00:43:13.643Z,0
2018-06-30T00:43:54.115Z,0
2018-06-30T00:44:34.508Z,0
2018-06-30T00:45:14.921Z,0
2018-06-30T00:45:55.407Z,0
2018-06-30T00:46:35.996Z,0
2018-06-30T00:47:16.351Z,0
2018-06-30T00:47:56.747Z,0
2018-06-30T00:48:37.222Z,0
2018-06-30T00:49:17.731Z,0
2018-06-30T00:49:57.975Z,0
2018-06-30T00:50:38.405Z,0
2018-06-30T00:51:18.894Z,0
2018-06-30T00:51:59.936Z,0
2018-06-30T00:52:40.126Z,0
2018-06-30T00:53:20.489Z,0
2018-06-30T00:54:01.701Z,0
2018-06-30T00:54:42.146Z,0
2018-06-30T00:55:22.622Z,0
2018-06-30T00:56:03.557Z,0
2018-06-30T00:56:43.916Z,0
2018-06-30T00:57:24.312Z,0
2018-06-30T00:58:04.811Z,0
2018-06-30T00:58:45.156Z,0
2018-06-30T00:59:25.548Z,0
2018-06-30T01:00:05.987Z,0
2018-06-30T01:00:46.358Z,0
2018-06-30T01:01:26.869Z,0
2018-06-30T01:02:07.254Z,0
2018-06-30T01:02:47.669Z,0
2018-06-30T01:03:28.108Z,0
2018-06-30T01:04:08.585Z,0
2018-06-30T01:04:48.977Z,0
2018-06-30T01:05:29.393Z,0
2018-06-30T01:06:09.863Z,0
2018-06-30T01:06:50.247Z,0
2018-06-30T01:07:30.654Z,0
2018-06-30T01:08:11.068Z,0
2018-06-30T01:08:51.487Z,0
2018-06-30T01:09:31.904Z,0
2018-06-30T01:10:12.324Z,0
2018-06-30T01:10:52.692Z,0
2018-06-30T01:11:33.128Z,0
2018-06-30T01:12:13.564Z,0
2018-06-30T01:12:53.889Z,0
2018-06-30T01:13:34.317Z,0
2018-06-30T01:38:59.888Z,0
2018-06-30T01:39:41.406Z,0
2018-06-30T01:40:21.850Z,0
2018-06-30T01:41:02.247Z,0
2018-06-30T01:41:42.647Z,0
2018-06-30T01:42:23.073Z,0
2018-06-30T01:43:03.454Z,0
2018-06-30T01:43:43.925Z,0
2018-06-30T01:44:24.294Z,0
2018-06-30T01:45:04.717Z,0
2018-06-30T01:45:45.130Z,0
2018-06-30T01:46:25.569Z,0
2018-06-30T01:47:05.932Z,0
2018-06-30T01:47:46.398Z,0
2018-06-30T01:48:26.756Z,0
2018-06-30T01:49:07.211Z,0
2018-06-30T01:49:47.551Z,0
2018-06-30T01:50:28.002Z,0
2018-06-30T01:51:08.432Z,0
2018-06-30T01:51:48.750Z,0
2018-06-30T01:52:29.175Z,0
2018-06-30T01:53:09.686Z,0
2018-06-30T01:53:50.015Z,0
2018-06-30T01:54:30.409Z,0
2018-06-30T01:55:10.806Z,0
2018-06-30T01:55:51.217Z,0
2018-06-30T01:56:31.627Z,0
2018-06-30T01:57:12.052Z,0
2018-06-30T01:57:52.425Z,0
2018-06-30T01:58:32.921Z,0
2018-06-30T01:59:13.370Z,0
2018-06-30T01:59:53.688Z,0
2018-06-30T02:00:34.115Z,0
2018-06-30T02:01:14.474Z,0
2018-06-30T02:01:54.892Z,0
2018-06-30T02:02:35.438Z,0
2018-06-30T02:03:15.902Z,0
2018-06-30T02:03:56.284Z,0
2018-06-30T02:04:36.688Z,0
2018-06-30T02:05:17.131Z,0
2018-06-30T02:05:57.502Z,0
2018-06-30T02:06:37.958Z,0
2018-06-30T02:07:18.331Z,0
2018-06-30T02:07:58.772Z,0
2018-06-30T02:08:39.107Z,0
2018-06-30T02:09:19.507Z,0
2018-06-30T02:09:59.991Z,0
2018-06-30T02:10:40.382Z,0
2018-06-30T02:11:20.784Z,0
2018-06-30T02:12:01.174Z,0
2018-06-30T02:12:41.636Z,0
2018-06-30T02:13:22.012Z,0
2018-06-30T02:14:02.433Z,0
2018-06-30T02:14:42.822Z,0
2018-06-30T02:15:23.259Z,0
2018-06-30T02:16:03.620Z,0
2018-06-30T02:16:44.063Z,0
2018-06-30T02:17:24.456Z,0
2018-06-30T02:18:04.942Z,0
2018-06-30T02:18:45.324Z,0
2018-06-30T02:19:25.737Z,0
2018-06-30T02:20:06.217Z,0
2018-06-30T02:20:46.625Z,0
2018-06-30T02:21:26.983Z,0
2018-06-30T02:22:07.426Z,0
2018-06-30T02:22:47.874Z,0
2018-06-30T02:23:28.285Z,0
2018-06-30T02:24:08.675Z,0
2018-06-30T02:24:49.100Z,0
2018-06-30T02:25:29.543Z,0
2018-06-30T02:26:10.023Z,0
2018-06-30T02:26:50.376Z,0
2018-06-30T02:27:30.823Z,0
2018-06-30T02:28:11.214Z,0
2018-06-30T02:28:51.598Z,0
2018-06-30T02:29:32.025Z,0
2018-06-30T02:30:12.416Z,0
2018-06-30T02:30:52.945Z,0
2018-06-30T02:31:33.326Z,0
2018-06-30T02:32:13.671Z,0
2018-06-30T02:32:54.063Z,0
2018-06-30T02:33:34.452Z,0
2018-06-30T02:34:14.869Z,0
2018-06-30T02:34:55.278Z,0
2018-06-30T02:35:35.696Z,0
2018-06-30T02:36:16.120Z,0
2018-06-30T02:36:56.560Z,0
2018-06-30T02:37:36.973Z,0
2018-06-30T02:38:17.403Z,0
2018-06-30T02:38:57.878Z,0
2018-06-30T02:39:38.205Z,0
2018-06-30T03:45:32.662Z,5
2018-06-30T04:42:15.365Z,95
2018-06-30T04:42:55.702Z,100
2018-06-30T04:43:36.203Z,100
2018-06-30T04:44:16.514Z,100
2018-06-30T04:44:56.913Z,100
2018-06-30T04:45:37.323Z,105
2018-06-30T04:46:17.764Z,105
2018-06-30T04:46:58.097Z,105
2018-06-30T04:47:38.697Z,105
2018-06-30T04:48:19.074Z,110
2018-06-30T04:48:59.552Z,110
2018-06-30T04:49:39.944Z,115
2018-06-30T04:50:20.312Z,115
2018-06-30T04:51:00.756Z,115
2018-06-30T04:51:41.240Z,120
2018-06-30T04:52:21.572Z,120
2018-06-30T04:53:01.972Z,120
2018-06-30T04:53:42.432Z,125
2018-06-30T04:54:22.885Z,125
2018-06-30T04:55:03.253Z,130
2018-06-30T04:55:43.642Z,130
2018-06-30T04:56:24.067Z,135
2018-06-30T04:57:04.508Z,135
2018-06-30T04:57:44.875Z,135
2018-06-30T04:58:25.287Z,140
2018-06-30T04:59:07.494Z,140
2018-06-30T04:59:47.988Z,145
2018-06-30T05:00:28.449Z,140
2018-06-30T05:01:08.857Z,140
2018-06-30T05:01:49.183Z,145
2018-06-30T05:02:29.632Z,145
2018-06-30T05:03:10.041Z,145
2018-06-30T05:03:50.490Z,150
2018-06-30T05:04:30.879Z,150
2018-06-30T05:05:11.344Z,155
2018-06-30T05:05:51.742Z,160
2018-06-30T05:06:32.154Z,165
2018-06-30T05:07:12.548Z,165
2018-06-30T05:07:52.948Z,165
2018-06-30T05:08:33.446Z,170
2018-06-30T05:09:13.797Z,170
2018-06-30T05:09:54.243Z,175
2018-06-30T05:10:34.706Z,175
2018-06-30T05:11:15.163Z,180
2018-06-30T05:11:55.480Z,185
2018-06-30T05:12:35.879Z,190
2018-06-30T05:13:16.304Z,185
2018-06-30T05:13:56.729Z,195
2018-06-30T05:14:37.150Z,200
2018-06-30T05:15:17.557Z,200
2018-06-30T05:15:57.958Z,205
2018-06-30T05:16:38.409Z,210
2018-06-30T05:17:18.807Z,210
2018-06-30T05:17:59.228Z,210
2018-06-30T05:18:39.666Z,215
2018-06-30T05:19:20.130Z,215
2018-06-30T05:20:00.536Z,220
2018-06-30T05:20:40.900Z,220
2018-06-30T05:21:21.304Z,225
2018-06-30T05:22:01.726Z,230
2018-06-30T05:22:42.268Z,235
2018-06-30T05:23:22.640Z,240
2018-06-30T05:24:03.007Z,245
2018-06-30T05:24:43.478Z,250
2018-06-30T05:25:23.847Z,250
2018-06-30T05:26:04.315Z,250
2018-06-30T05:26:44.758Z,245
2018-06-30T05:27:25.160Z,240
2018-06-30T05:28:05.501Z,240
2018-06-30T05:28:45.980Z,240
2018-06-30T05:29:26.363Z,240
2018-06-30T05:30:06.795Z,245
2018-06-30T05:30:47.218Z,245
2018-06-30T05:31:27.560Z,250
2018-06-30T05:32:07.990Z,250
2018-06-30T05:32:48.415Z,250
2018-06-30T05:33:28.929Z,250
2018-06-30T05:34:09.260Z,255
2018-06-30T05:34:49.703Z,260
2018-06-30T05:35:30.135Z,255
2018-06-30T05:36:10.577Z,260
2018-06-30T05:36:50.931Z,260
2018-06-30T05:37:31.323Z,265
2018-06-30T05:38:11.724Z,265
2018-06-30T05:38:52.206Z,265
2018-06-30T05:39:32.721Z,270
2018-06-30T05:40:13.068Z,270
2018-06-30T05:40:53.504Z,275
2018-06-30T05:41:33.925Z,275
2018-06-30T05:42:14.314Z,280
2018-06-30T05:42:54.740Z,280
2018-06-30T05:43:35.143Z,285
2018-06-30T05:44:15.559Z,285
2018-06-30T05:44:56.009Z,285
2018-06-30T05:45:36.433Z,290
2018-06-30T05:46:16.835Z,290
2018-06-30T05:46:57.286Z,290
2018-06-30T05:47:37.668Z,300
2018-06-30T05:48:18.063Z,295
2018-06-30T05:48:58.458Z,300
2018-06-30T05:49:38.877Z,305
2018-06-30T05:50:19.292Z,310
2018-06-30T05:50:59.740Z,315
2018-06-30T05:51:40.140Z,315
2018-06-30T05:52:20.548Z,315
2018-06-30T05:53:00.993Z,320
2018-06-30T05:53:41.400Z,320
2018-06-30T05:54:21.819Z,320
2018-06-30T05:55:02.304Z,320
2018-06-30T05:55:42.741Z,315
2018-06-30T05:56:23.109Z,325
2018-06-30T05:57:03.572Z,335
2018-06-30T05:57:43.931Z,345
2018-06-30T05:58:24.340Z,345
2018-06-30T05:59:04.733Z,335
2018-06-30T05:59:45.100Z,335
2018-06-30T06:00:25.501Z,335
2018-06-30T06:01:05.906Z,340
2018-06-30T06:01:46.347Z,340
2018-06-30T06:02:26.766Z,340
2018-06-30T06:03:07.103Z,345
2018-06-30T06:04:09.983Z,355
2018-06-30T06:04:50.364Z,360
2018-06-30T06:05:30.814Z,365
2018-06-30T06:06:11.438Z,370
2018-06-30T06:06:51.821Z,375
2018-06-30T06:07:32.847Z,375
2018-06-30T06:08:13.319Z,380
2018-06-30T06:08:54.099Z,385
2018-06-30T06:11:27.524Z,415
2018-06-30T06:12:05.833Z,415
2018-06-30T06:12:48.900Z,425
2018-06-30T06:13:28.847Z,435
2018-06-30T06:14:09.274Z,440
2018-06-30T06:14:49.756Z,450
2018-06-30T06:15:30.176Z,460
2018-06-30T06:16:10.595Z,460
2018-06-30T06:16:51.803Z,475
2018-06-30T06:25:35.838Z,1540
2018-06-30T06:26:15.916Z,1180
2018-06-30T06:26:56.398Z,1085
2018-06-30T06:27:36.898Z,1085
2018-06-30T06:28:17.172Z,1085
2018-06-30T06:28:57.622Z,1095
2018-06-30T06:31:19.560Z,1205
2018-06-30T06:32:00.001Z,1195
2018-06-30T06:32:40.554Z,1200
2018-06-30T06:33:20.868Z,1240
2018-06-30T06:34:01.299Z,1255
2018-06-30T06:36:19.092Z,1290
2018-06-30T06:36:59.770Z,1285
2018-06-30T06:37:40.091Z,1260
2018-06-30T06:38:20.480Z,1245
2018-06-30T06:39:00.951Z,1240
2018-06-30T06:39:41.394Z,1245
2018-06-30T06:40:21.753Z,1245
2018-06-30T06:41:02.166Z,1255
2018-06-30T06:41:42.614Z,1260
2018-06-30T06:42:23.109Z,1315
2018-06-30T06:43:03.549Z,1345
2018-06-30T06:43:44.188Z,1390
2018-06-30T06:44:24.636Z,1450
2018-06-30T06:45:05.039Z,1495
2018-06-30T06:45:45.437Z,1505
2018-06-30T06:46:25.978Z,1480
2018-06-30T06:47:06.322Z,1435
2018-06-30T06:47:46.818Z,1400
2018-06-30T06:48:27.831Z,1395
2018-06-30T06:53:50.994Z,635
2018-06-30T06:54:31.981Z,580
2018-06-30T06:55:12.412Z,555
2018-06-30T06:55:52.837Z,550
2018-06-30T06:56:33.263Z,540
2018-06-30T06:57:13.690Z,545
2018-06-30T06:57:54.092Z,545
2018-06-30T06:58:34.571Z,535
2018-06-30T06:59:14.964Z,530
2018-06-30T06:59:55.407Z,535
2018-06-30T07:00:35.816Z,550
2018-06-30T07:01:16.197Z,560
2018-06-30T07:01:59.063Z,570
2018-06-30T07:02:38.526Z,570
2018-06-30T07:03:18.983Z,565
2018-06-30T07:03:59.340Z,575
2018-06-30T07:10:39.221Z,645
2018-06-30T07:11:19.575Z,645
2018-06-30T07:12:00.047Z,645
2018-06-30T07:12:40.571Z,645
2018-06-30T07:13:21.212Z,635
2018-06-30T07:14:01.572Z,610
2018-06-30T07:14:42.047Z,590
2018-06-30T07:15:22.441Z,585
2018-06-30T07:16:02.849Z,580
2018-06-30T07:16:43.325Z,570
2018-06-30T07:17:23.706Z,560
2018-06-30T07:18:04.126Z,570
2018-06-30T07:18:44.603Z,590
2018-06-30T07:19:24.950Z,600
2018-06-30T07:20:05.408Z,605
2018-06-30T07:20:45.852Z,610
2018-06-30T07:21:26.270Z,600
2018-06-30T07:22:06.638Z,585
2018-06-30T07:22:47.105Z,560
2018-06-30T07:23:27.491Z,545
2018-06-30T07:24:07.888Z,545
2018-06-30T07:24:48.292Z,545
2018-06-30T07:25:29.050Z,540
2018-06-30T07:26:09.348Z,530
2018-06-30T07:26:49.779Z,530
2018-06-30T07:27:30.215Z,540
2018-06-30T07:28:10.683Z,530
2018-06-30T07:28:51.098Z,520
2018-06-30T07:29:31.521Z,505
2018-06-30T07:30:11.913Z,490
2018-06-30T07:30:52.353Z,485
2018-06-30T07:31:33.048Z,460
2018-06-30T07:32:13.218Z,410
2018-06-30T07:32:53.745Z,345
2018-06-30T07:33:34.350Z,300
2018-06-30T07:34:14.608Z,275
2018-06-30T07:34:55.005Z,265
2018-06-30T07:35:36.637Z,250
2018-06-30T07:44:48.001Z,170
2018-06-30T07:45:28.529Z,170
2018-06-30T07:46:08.936Z,165
2018-06-30T07:46:49.544Z,160
2018-06-30T07:47:30.740Z,160
2018-06-30T07:48:11.186Z,155
2018-06-30T07:48:51.645Z,155
2018-06-30T07:49:32.082Z,150
2018-06-30T07:50:13.481Z,150
2018-06-30T07:50:56.050Z,145
2018-06-30T07:51:36.607Z,145
2018-06-30T07:52:17.786Z,145
2018-06-30T07:52:58.192Z,145
2018-06-30T07:53:38.684Z,140
2018-06-30T07:54:19.110Z,140
2018-06-30T07:55:01.328Z,140
2018-06-30T07:55:41.763Z,135
2018-06-30T07:56:22.129Z,135
2018-06-30T07:57:02.557Z,135
2018-06-30T07:57:43.250Z,130
2018-06-30T08:00:54.201Z,125
2018-06-30T08:01:34.617Z,125
2018-06-30T08:02:15.056Z,125
2018-06-30T08:02:55.439Z,120
2018-06-30T08:03:35.841Z,120
2018-06-30T08:04:16.211Z,120
2018-06-30T08:04:56.635Z,120
2018-06-30T08:05:37.103Z,120
2018-06-30T08:06:17.565Z,115
2018-06-30T08:06:58.051Z,115
2018-06-30T08:07:38.577Z,115
2018-06-30T08:08:18.987Z,115
2018-06-30T08:08:59.427Z,115
2018-06-30T08:09:40.013Z,115
2018-06-30T08:10:21.414Z,115
2018-06-30T08:11:01.076Z,110
2018-06-30T08:11:41.584Z,110
2018-06-30T08:12:21.977Z,110
2018-06-30T08:13:02.388Z,110
2018-06-30T08:13:42.807Z,110
2018-06-30T08:14:23.452Z,110
2018-06-30T08:15:03.854Z,110
2018-06-30T08:15:44.409Z,105
2018-06-30T08:16:24.706Z,105
2018-06-30T08:17:05.800Z,105
2018-06-30T08:17:46.025Z,105
2018-06-30T08:18:27.247Z,105
2018-06-30T08:19:08.347Z,105
2018-06-30T08:19:48.450Z,105
2018-06-30T08:20:28.930Z,105
2018-06-30T08:21:10.109Z,105
2018-06-30T08:21:50.589Z,100
2018-06-30T08:22:31.847Z,100
2018-06-30T08:23:14.633Z,100
2018-06-30T08:23:53.649Z,100
2018-06-30T08:24:34.099Z,100
2018-06-30T08:25:14.677Z,100
2018-06-30T08:25:54.981Z,100
2018-06-30T08:26:35.585Z,100
2018-06-30T08:27:16.884Z,100
2018-06-30T08:33:46.042Z,95
2018-06-30T08:34:26.390Z,95
2018-06-30T08:35:06.832Z,95
2018-06-30T08:35:47.387Z,95
2018-06-30T08:36:27.862Z,95
2018-06-30T08:37:08.310Z,95
2018-06-30T08:37:48.725Z,95
2018-06-30T08:38:29.157Z,95
2018-06-30T08:39:09.559Z,95
2018-06-30T08:39:50.377Z,90
2018-06-30T08:40:30.952Z,90
2018-06-30T08:41:11.237Z,90
2018-06-30T08:41:52.517Z,90
2018-06-30T08:42:32.405Z,90
2018-06-30T08:46:42.332Z,90
2018-06-30T08:47:22.866Z,90
2018-06-30T08:48:02.735Z,90
2018-06-30T08:48:43.498Z,90
2018-06-30T08:49:23.990Z,90
2018-06-30T08:53:34.445Z,90
2018-06-30T08:54:15.118Z,90
2018-06-30T08:54:55.516Z,90
2018-06-30T08:55:35.987Z,90
2018-06-30T08:56:16.395Z,90
2018-06-30T08:56:57.040Z,90
2018-06-30T08:57:37.501Z,90
2018-06-30T08:58:17.917Z,85
2018-06-30T08:58:58.365Z,85
2018-06-30T08:59:38.735Z,85
2018-06-30T09:00:19.265Z,85
2018-06-30T09:00:59.684Z,90
2018-06-30T09:01:40.165Z,85
2018-06-30T09:02:20.528Z,85
2018-06-30T09:03:01.089Z,85
2018-06-30T09:03:41.524Z,85
2018-06-30T09:04:22.135Z,85
2018-06-30T09:05:02.870Z,85
2018-06-30T09:05:43.264Z,85
2018-06-30T09:06:24.049Z,85
2018-06-30T09:07:04.366Z,85
2018-06-30T09:07:44.935Z,85
2018-06-30T09:08:25.423Z,85
2018-06-30T09:09:05.860Z,85
2018-06-30T09:09:46.259Z,85
2018-06-30T09:10:26.779Z,85
2018-06-30T09:11:07.242Z,85
2018-06-30T09:11:47.624Z,85
2018-06-30T09:12:28.167Z,85
2018-06-30T09:13:08.676Z,80
2018-06-30T09:13:49.044Z,80
2018-06-30T09:14:30.038Z,80
2018-06-30T09:15:10.425Z,80
2018-06-30T09:15:50.916Z,80
2018-06-30T09:16:31.370Z,80
2018-06-30T09:17:11.879Z,80
2018-06-30T09:17:52.313Z,80
2018-06-30T09:18:32.772Z,80
2018-06-30T09:19:13.330Z,80
2018-06-30T09:19:53.718Z,80
2018-06-30T09:20:34.353Z,80
2018-06-30T09:21:15.001Z,80
2018-06-30T09:21:55.436Z,80
2018-06-30T09:22:35.861Z,80
2018-06-30T09:23:16.406Z,80
2018-06-30T09:23:56.790Z,80
2018-06-30T09:24:37.155Z,75
2018-06-30T09:25:17.677Z,75
2018-06-30T09:25:58.133Z,75
2018-06-30T09:26:38.616Z,75
2018-06-30T09:27:19.523Z,75
2018-06-30T09:28:00.019Z,75
2018-06-30T09:28:40.623Z,75
2018-06-30T09:29:21.235Z,75
2018-06-30T09:30:01.787Z,75
2018-06-30T09:32:05.953Z,75
2018-06-30T09:32:47.416Z,75
2018-06-30T09:33:27.796Z,75
2018-06-30T09:34:08.375Z,75
2018-06-30T09:34:48.808Z,75
2018-06-30T09:35:29.511Z,75
2018-06-30T09:36:10.080Z,75
2018-06-30T09:36:50.367Z,75
2018-06-30T09:37:30.883Z,75
2018-06-30T09:38:11.407Z,75
2018-06-30T09:38:52.059Z,75
2018-06-30T09:39:32.467Z,75
2018-06-30T09:42:00.595Z,75
2018-06-30T09:42:40.904Z,75
2018-06-30T09:43:21.354Z,75
2018-06-30T09:44:02.011Z,75
2018-06-30T09:44:42.398Z,75
2018-06-30T09:45:22.974Z,75
2018-06-30T09:46:03.343Z,75
2018-06-30T09:46:43.834Z,75
2018-06-30T09:47:24.198Z,75
2018-06-30T09:48:04.735Z,75
2018-06-30T09:48:45.101Z,75
2018-06-30T09:49:25.532Z,75
2018-06-30T09:50:05.991Z,75
2018-06-30T09:50:46.775Z,75
2018-06-30T09:51:27.241Z,75
2018-06-30T09:52:07.688Z,75
2018-06-30T09:52:48.116Z,75
2018-06-30T09:53:28.562Z,75
2018-06-30T09:54:09.413Z,75
2018-06-30T09:54:49.731Z,75
2018-06-30T09:55:30.279Z,75
2018-06-30T09:56:10.633Z,75
2018-06-30T09:56:51.466Z,70
2018-06-30T09:57:31.828Z,75
2018-06-30T09:58:12.323Z,75
2018-06-30T09:58:52.806Z,75
2018-06-30T09:59:33.380Z,75
2018-06-30T10:00:14.309Z,75
2018-06-30T10:00:54.983Z,75
2018-06-30T10:44:20.546Z,80
2018-06-30T10:45:00.958Z,80
2018-06-30T10:45:41.753Z,80
2018-06-30T10:46:22.872Z,80
2018-06-30T10:47:03.181Z,80
2018-06-30T10:47:43.672Z,80
2018-06-30T10:48:24.199Z,80
2018-06-30T10:49:04.682Z,80
2018-06-30T10:49:45.901Z,80
2018-06-30T10:50:26.644Z,75
2018-06-30T10:51:07.486Z,75
2018-06-30T10:51:47.972Z,75
2018-06-30T10:52:28.404Z,75
2018-06-30T10:53:09.189Z,75
2018-06-30T10:53:49.688Z,75
2018-06-30T10:54:32.282Z,75
2018-06-30T10:55:11.126Z,75
2018-06-30T10:55:51.579Z,75
2018-06-30T10:56:31.957Z,75
2018-06-30T10:57:12.665Z,75
2018-06-30T10:57:53.780Z,75
2018-06-30T10:58:34.102Z,75
2018-06-30T10:59:15.286Z,75
2018-06-30T10:59:55.390Z,75
2018-06-30T11:00:36.092Z,75
2018-06-30T11:01:16.409Z,75
2018-06-30T11:01:56.824Z,75
2018-06-30T11:02:37.301Z,75
2018-06-30T11:03:18.310Z,75
2018-06-30T11:03:59.149Z,75
2018-06-30T11:04:39.411Z,75
2018-06-30T11:05:21.290Z,75
2018-06-30T11:06:00.669Z,75
2018-06-30T11:06:41.148Z,75
2018-06-30T11:07:21.696Z,75
2018-06-30T11:08:02.073Z,75
2018-06-30T11:08:42.800Z,75
2018-06-30T11:09:22.991Z,75
2018-06-30T11:10:03.405Z,75
2018-06-30T11:10:44.289Z,75
2018-06-30T11:11:24.734Z,75
2018-06-30T11:12:05.334Z,75
2018-06-30T11:12:45.976Z,75
2018-06-30T11:13:26.913Z,75
2018-06-30T11:14:07.673Z,75
2018-06-30T11:14:47.904Z,80
2018-06-30T11:15:28.320Z,80
2018-06-30T11:16:08.812Z,80
2018-06-30T11:16:49.236Z,80
2018-06-30T11:17:30.002Z,80
2018-06-30T11:18:10.206Z,80
2018-06-30T11:18:50.600Z,80
2018-06-30T11:19:34.035Z,85
2018-06-30T11:20:14.610Z,85
2018-06-30T11:20:55.261Z,85
2018-06-30T11:21:35.659Z,85
2018-06-30T11:22:16.174Z,85
2018-06-30T11:22:56.563Z,85
2018-06-30T11:23:37.010Z,85
2018-06-30T11:24:17.444Z,85
2018-06-30T11:24:58.937Z,85
2018-06-30T11:25:39.631Z,85
2018-06-30T11:26:20.771Z,85
2018-06-30T11:27:01.526Z,85
2018-06-30T11:27:42.529Z,90
2018-06-30T11:28:23.097Z,85
2018-06-30T11:29:03.897Z,85
2018-06-30T11:29:47.118Z,85
2018-06-30T11:30:28.131Z,85
2018-06-30T11:31:08.968Z,85
2018-06-30T11:31:50.041Z,80
2018-06-30T11:32:30.464Z,70
2018-06-30T11:33:11.926Z,80
2018-06-30T11:33:52.376Z,75
2018-06-30T11:34:34.449Z,50
2018-06-30T11:35:14.412Z,80
2018-06-30T11:35:55.205Z,75
2018-06-30T11:36:35.871Z,50
2018-06-30T11:37:16.206Z,50
2018-06-30T11:37:56.902Z,45
2018-06-30T11:38:37.191Z,50
2018-06-30T11:39:17.681Z,70
2018-06-30T11:39:58.061Z,70
2018-06-30T11:40:38.552Z,50
2018-06-30T11:41:19.013Z,50
2018-06-30T11:41:59.404Z,50
2018-06-30T11:42:39.903Z,50
2018-06-30T11:43:20.675Z,50
2018-06-30T11:44:01.420Z,55
2018-06-30T11:44:43.457Z,70
2018-06-30T11:45:23.111Z,80
2018-06-30T11:46:03.652Z,80
2018-06-30T11:46:44.243Z,80
2018-06-30T11:47:24.832Z,80
2018-06-30T11:48:05.328Z,80
2018-06-30T11:48:45.769Z,80
2018-06-30T11:49:26.377Z,80
2018-06-30T11:50:06.787Z,80
2018-06-30T11:50:47.406Z,80
2018-06-30T11:51:28.105Z,80
2018-06-30T11:52:08.724Z,80
2018-06-30T11:52:49.250Z,80
2018-06-30T11:53:30.080Z,85
2018-06-30T11:54:10.987Z,85
2018-06-30T11:54:52.295Z,80
2018-06-30T11:55:33.974Z,75
2018-06-30T11:56:13.705Z,75
2018-06-30T11:56:54.549Z,75
2018-06-30T11:57:36.041Z,75
2018-06-30T11:58:16.628Z,75
2018-06-30T11:58:57.304Z,75
2018-06-30T11:59:38.157Z,70
2018-06-30T12:00:18.282Z,70
2018-06-30T12:00:58.722Z,75
2018-06-30T12:01:39.227Z,75
2018-06-30T12:02:19.604Z,75
2018-06-30T12:03:00.139Z,65
2018-06-30T12:03:40.974Z,50
2018-06-30T12:04:21.021Z,50
2018-06-30T12:05:01.477Z,55
2018-06-30T12:05:42.111Z,50
2018-06-30T12:06:23.241Z,55
2018-06-30T12:07:04.119Z,50
2018-06-30T12:07:44.426Z,50
2018-06-30T12:08:24.880Z,50
2018-06-30T12:09:05.319Z,50
2018-06-30T12:09:46.213Z,50
2018-06-30T12:10:26.980Z,50
2018-06-30T12:11:07.048Z,70
2018-06-30T12:11:47.472Z,80
2018-06-30T12:12:27.906Z,80
2018-06-30T12:13:08.339Z,75
2018-06-30T12:13:48.808Z,75
2018-06-30T12:14:29.207Z,75
2018-06-30T12:15:09.660Z,70
2018-06-30T12:15:50.016Z,75
2018-06-30T12:16:30.975Z,70
2018-06-30T12:17:11.453Z,70
2018-06-30T12:17:51.418Z,70
2018-06-30T12:18:32.030Z,70
2018-06-30T12:19:12.587Z,70
2018-06-30T12:19:54.988Z,70
2018-06-30T12:20:34.939Z,70
2018-06-30T12:21:15.518Z,45
2018-06-30T12:21:56.979Z,40
2018-06-30T12:22:37.457Z,40
2018-06-30T12:23:17.439Z,40
2018-06-30T12:23:59.916Z,40
2018-06-30T12:24:40.653Z,40
2018-06-30T12:25:23.298Z,40
2018-06-30T12:26:02.795Z,40
2018-06-30T12:26:44.284Z,40
2018-06-30T12:27:23.914Z,40
2018-06-30T12:28:04.753Z,45
2018-06-30T12:28:45.143Z,45
2018-06-30T12:29:25.733Z,50
2018-06-30T12:30:06.493Z,75
2018-06-30T12:30:46.957Z,75
2018-06-30T12:31:28.081Z,75
2018-06-30T12:32:09.503Z,55
2018-06-30T12:32:51.504Z,50
2018-06-30T12:33:31.066Z,50
2018-06-30T12:39:40.905Z,80
2018-06-30T12:40:20.892Z,75
2018-06-30T12:41:01.809Z,75
2018-06-30T12:41:42.414Z,75
2018-06-30T12:42:23.137Z,75
2018-06-30T12:43:04.162Z,75
2018-06-30T12:43:44.295Z,75
2018-06-30T12:44:24.735Z,75
2018-06-30T12:45:05.421Z,75
2018-06-30T12:45:46.104Z,75
2018-06-30T12:46:26.577Z,75
2018-06-30T12:49:04.120Z,45
2018-06-30T12:49:44.602Z,45
2018-06-30T12:50:25.373Z,45
2018-06-30T12:51:05.821Z,45
2018-06-30T12:51:46.364Z,45
2018-06-30T12:52:26.713Z,45
2018-06-30T12:53:07.122Z,40
2018-06-30T12:53:47.579Z,40
2018-06-30T12:54:28.092Z,40
2018-06-30T12:55:08.473Z,40
2018-06-30T12:55:48.882Z,45
2018-06-30T12:56:29.374Z,50
2018-06-30T12:57:09.783Z,60
2018-06-30T12:57:50.225Z,50
2018-06-30T13:00:23.009Z,70
2018-06-30T13:01:03.493Z,70
2018-06-30T13:01:44.134Z,70
2018-06-30T13:04:04.631Z,70
2018-06-30T13:04:45.040Z,70
2018-06-30T13:05:25.497Z,70
2018-06-30T13:06:06.147Z,75
2018-06-30T13:06:46.591Z,75
2018-06-30T13:07:27.009Z,75
2018-06-30T13:08:07.444Z,75
2018-06-30T13:08:47.871Z,75
2018-06-30T13:19:41.431Z,75
2018-06-30T13:20:21.832Z,75
2018-06-30T13:21:02.250Z,75
2018-06-30T13:21:42.670Z,75
2018-06-30T13:22:24.152Z,75
2018-06-30T13:23:04.590Z,75
2018-06-30T13:23:45.020Z,75
2018-06-30T13:24:25.435Z,75
2018-06-30T13:25:05.850Z,70
2018-06-30T13:25:46.297Z,70
2018-06-30T13:26:26.701Z,70
2018-06-30T13:27:07.124Z,70
2018-06-30T13:27:47.544Z,70
2018-06-30T13:28:27.978Z,70
2018-06-30T13:32:43.647Z,65
2018-06-30T13:33:24.542Z,65
2018-06-30T13:34:04.469Z,65
2018-06-30T13:34:44.870Z,65
2018-06-30T13:35:25.273Z,65
2018-06-30T13:37:44.477Z,60
2018-06-30T13:38:24.945Z,60
2018-06-30T13:39:05.356Z,65
2018-06-30T13:39:45.818Z,65
2018-06-30T13:40:26.195Z,65
2018-06-30T13:41:07.196Z,65
2018-06-30T13:41:47.605Z,65
2018-06-30T13:42:28.046Z,65
2018-06-30T13:43:08.503Z,65
2018-06-30T13:43:48.919Z,65
2018-06-30T13:44:29.364Z,65
2018-06-30T13:45:09.704Z,65
2018-06-30T13:45:50.124Z,65
2018-06-30T13:46:30.523Z,65
2018-06-30T13:47:10.953Z,65
2018-06-30T13:47:51.452Z,65
2018-06-30T13:48:31.833Z,65
2018-06-30T13:49:12.312Z,65
2018-06-30T13:49:52.782Z,65
2018-06-30T13:50:33.195Z,65
2018-06-30T13:51:13.637Z,60
2018-06-30T13:51:54.336Z,60
2018-06-30T13:52:34.863Z,55
2018-06-30T13:53:15.271Z,45
2018-06-30T13:53:56.769Z,50
2018-06-30T13:54:37.491Z,50
2018-06-30T13:55:18.285Z,55
2018-06-30T14:02:52.831Z,55
2018-06-30T14:03:33.283Z,55
2018-06-30T14:04:14.266Z,60
2018-06-30T14:04:54.164Z,60
2018-06-30T14:05:34.580Z,60
2018-06-30T14:06:15.015Z,60
2018-06-30T14:06:55.459Z,60
2018-06-30T14:07:36.392Z,60
2018-06-30T14:08:16.808Z,60
2018-06-30T14:08:57.232Z,60
2018-06-30T14:09:37.642Z,60
2018-06-30T14:10:18.602Z,60
2018-06-30T14:10:58.948Z,60
2018-06-30T14:11:39.336Z,60
2018-06-30T14:12:19.823Z,60
2018-06-30T14:13:00.212Z,60
2018-06-30T14:13:40.660Z,60
2018-06-30T14:14:21.048Z,60
2018-06-30T14:15:01.451Z,60
2018-06-30T14:15:41.858Z,60
2018-06-30T14:16:22.289Z,60
2018-06-30T14:17:02.749Z,60
2018-06-30T14:17:43.425Z,60